createdAt,value
2023-05-05T00:04:46.157Z,63.33
2023-05-05T00:09:48.669Z,63.64
2023-05-05T00:14:51.309Z,63.92
2023-05-05T00:19:53.837Z,64.35
2023-05-05T00:24:56.430Z,64.38
2023-05-05T00:29:59.001Z,65.01
2023-05-05T00:35:01.543Z,65.32
2023-05-05T00:40:04.335Z,66.32
2023-05-05T00:45:07.223Z,67.05
2023-05-05T00:50:10.821Z,67.58
2023-05-05T00:55:13.602Z,68.18
2023-05-05T01:00:16.783Z,69.50
2023-05-05T01:05:21.799Z,69.83
2023-05-05T01:10:27.672Z,71.58
2023-05-05T01:15:36.114Z,72.41
2023-05-05T01:20:48.730Z,72.04
2023-05-05T01:26:00.364Z,72.52
2023-05-05T01:31:27.740Z,73.82
2023-05-05T01:36:38.778Z,74.00
2023-05-05T01:41:48.878Z,73.53
2023-05-05T01:46:52.572Z,74.84
2023-05-05T01:51:57.582Z,74.34
2023-05-05T01:57:04.758Z,74.65
2023-05-05T02:02:10.214Z,74.54
2023-05-05T02:07:14.418Z,74.87
2023-05-05T02:12:19.267Z,75.66
2023-05-05T02:17:23.844Z,75.90
2023-05-05T02:22:26.456Z,76.20
2023-05-05T02:27:33.918Z,76.40
2023-05-05T02:32:59.980Z,76.44
2023-05-05T02:38:06.058Z,76.18
2023-05-05T02:43:10.864Z,76.26
2023-05-05T02:48:13.413Z,76.70
2023-05-05T02:53:16.260Z,76.55
2023-05-05T02:58:30.888Z,76.21
2023-05-05T03:04:17.099Z,76.14
2023-05-05T03:09:41.495Z,76.58
2023-05-05T03:14:45.483Z,76.46
2023-05-05T03:19:51.032Z,76.57
2023-05-05T03:24:53.764Z,76.64
2023-05-05T03:29:56.661Z,76.85
2023-05-05T03:34:59.183Z,76.73
2023-05-05T03:40:01.706Z,76.91
2023-05-05T03:45:04.599Z,76.70
2023-05-05T03:50:08.183Z,76.48
2023-05-05T03:55:10.890Z,76.40
2023-05-05T04:00:15.539Z,76.10
2023-05-05T04:05:19.834Z,75.93
2023-05-05T04:10:22.364Z,75.94
2023-05-05T04:15:24.985Z,75.64
2023-05-05T04:20:27.567Z,75.36
2023-05-05T04:25:30.226Z,75.62
2023-05-05T04:30:33.019Z,75.45
2023-05-05T04:35:35.617Z,75.47
2023-05-05T04:40:40.004Z,75.14
2023-05-05T04:45:52.132Z,75.10
2023-05-05T04:50:54.650Z,74.84
2023-05-05T04:55:57.120Z,74.69
2023-05-05T05:00:59.660Z,74.16
2023-05-05T05:06:02.519Z,73.76
2023-05-05T05:11:05.172Z,72.92
2023-05-05T05:16:08.763Z,72.20
2023-05-05T05:21:11.992Z,71.96
2023-05-05T05:26:14.584Z,71.67
2023-05-05T05:31:17.963Z,70.66
2023-05-05T05:36:20.561Z,69.76
2023-05-05T05:41:23.159Z,68.58
2023-05-05T05:46:25.847Z,68.42
2023-05-05T05:51:28.498Z,67.67
2023-05-05T05:56:31.147Z,67.41
2023-05-05T06:01:35.201Z,66.53
2023-05-05T06:06:37.760Z,66.07
2023-05-05T06:11:40.441Z,66.36
2023-05-05T06:16:44.109Z,65.28
2023-05-05T06:21:46.796Z,64.39
2023-05-05T06:26:49.321Z,64.24
2023-05-05T06:31:52.062Z,63.69
2023-05-05T06:36:54.787Z,62.61
2023-05-05T06:41:57.419Z,62.28
2023-05-05T06:47:00.253Z,60.89
2023-05-05T06:52:02.981Z,60.68
2023-05-05T06:57:05.518Z,59.71
2023-05-05T07:02:08.176Z,58.51
2023-05-05T07:07:10.794Z,57.05
2023-05-05T07:12:13.367Z,56.86
2023-05-05T07:17:15.991Z,56.08
2023-05-05T07:22:18.588Z,55.33
2023-05-05T07:27:21.503Z,53.90
2023-05-05T07:32:24.479Z,54.22
2023-05-05T07:37:27.438Z,54.98
2023-05-05T07:42:30.056Z,53.21
2023-05-05T07:47:32.642Z,53.01
2023-05-05T07:52:46.595Z,53.24
2023-05-05T07:57:51.016Z,52.61
2023-05-05T08:02:54.035Z,53.00
2023-05-05T08:07:59.646Z,52.71
2023-05-05T08:13:02.486Z,50.55
2023-05-05T08:18:05.231Z,50.82
2023-05-05T08:23:07.833Z,49.96
2023-05-05T08:28:10.537Z,49.37
2023-05-05T08:33:13.709Z,48.96
2023-05-05T08:38:16.861Z,47.57
2023-05-05T08:43:22.774Z,47.43
2023-05-05T08:48:28.407Z,46.93
2023-05-05T08:53:54.276Z,46.15
2023-05-05T08:58:57.652Z,46.35
2023-05-05T09:04:00.396Z,46.32
2023-05-05T09:09:03.703Z,44.66
2023-05-05T09:14:06.941Z,44.51
2023-05-05T09:19:09.831Z,44.79
2023-05-05T09:24:13.427Z,45.03
2023-05-05T09:29:23.132Z,44.89
2023-05-05T09:34:26.337Z,43.74
2023-05-05T09:39:29.458Z,43.83
2023-05-05T09:44:36.884Z,42.69
2023-05-05T09:49:39.530Z,42.84
2023-05-05T09:54:43.611Z,42.59
2023-05-05T10:00:02.262Z,41.59
2023-05-05T10:05:16.330Z,42.37
2023-05-05T10:10:19.264Z,42.53
2023-05-05T10:15:25.028Z,42.35
2023-05-05T10:20:29.845Z,40.49
2023-05-05T10:25:39.162Z,41.07
2023-05-05T10:30:46.346Z,41.59
2023-05-05T10:35:53.914Z,40.96
2023-05-05T10:40:59.415Z,41.30
2023-05-05T10:46:02.345Z,40.86
2023-05-05T10:51:41.151Z,39.41
2023-05-05T10:56:44.010Z,38.77
2023-05-05T11:01:46.639Z,37.87
2023-05-05T11:07:21.169Z,36.98
2023-05-05T11:12:23.876Z,36.89
2023-05-05T11:17:49.280Z,36.37
2023-05-05T11:23:04.071Z,37.17
2023-05-05T11:28:11.525Z,36.78
2023-05-05T11:33:31.500Z,36.62
2023-05-05T11:39:10.042Z,35.89
2023-05-05T11:44:16.708Z,35.88
2023-05-05T11:49:30.178Z,35.10
2023-05-05T11:54:35.792Z,35.08
2023-05-05T11:59:57.123Z,34.77
2023-05-05T12:05:00.702Z,34.18
2023-05-05T12:10:03.595Z,32.98
2023-05-05T12:15:07.571Z,33.35
2023-05-05T12:20:12.041Z,33.28
2023-05-05T12:25:14.959Z,34.08
2023-05-05T12:30:18.854Z,31.61
2023-05-05T12:35:21.881Z,31.23
2023-05-05T12:40:45.228Z,31.87
2023-05-05T12:45:49.430Z,32.34
2023-05-05T12:50:52.338Z,31.22
2023-05-05T12:55:54.886Z,30.88
2023-05-05T13:01:10.821Z,31.20
2023-05-05T13:06:21.081Z,30.91
2023-05-05T13:11:23.592Z,30.72
2023-05-05T13:16:26.248Z,30.71
2023-05-05T13:21:28.844Z,29.82
2023-05-05T13:26:31.681Z,29.49
2023-05-05T13:31:34.401Z,29.33
2023-05-05T13:36:37.596Z,28.69
2023-05-05T13:41:40.397Z,28.70
2023-05-05T13:46:43.386Z,28.22
2023-05-05T13:51:46.874Z,27.04
2023-05-05T13:56:50.625Z,25.93
2023-05-05T14:01:53.963Z,26.37
2023-05-05T14:06:58.089Z,26.27
2023-05-05T14:12:00.719Z,24.80
2023-05-05T14:17:03.383Z,24.72
2023-05-05T14:22:06.543Z,25.07
2023-05-05T14:27:09.077Z,25.40
2023-05-05T14:32:11.765Z,24.52
2023-05-05T14:37:14.384Z,23.21
2023-05-05T14:42:17.092Z,22.92
2023-05-05T14:47:19.656Z,21.96
2023-05-05T14:52:22.198Z,21.43
2023-05-05T14:57:24.769Z,21.53
2023-05-05T15:02:27.352Z,21.07
2023-05-05T15:07:30.016Z,19.58
2023-05-05T15:12:32.589Z,18.58
2023-05-05T15:17:37.355Z,18.52
2023-05-05T15:22:40.050Z,19.38
2023-05-05T15:27:42.721Z,19.44
2023-05-05T15:32:45.392Z,19.09
2023-05-05T15:37:47.950Z,18.77
2023-05-05T15:42:50.448Z,18.50
2023-05-05T15:47:53.689Z,18.24
2023-05-05T15:52:57.194Z,18.25
2023-05-05T15:57:59.746Z,17.73
2023-05-05T16:03:02.472Z,17.92
2023-05-05T16:08:09.619Z,18.34
2023-05-05T16:13:12.378Z,18.63
2023-05-05T16:18:14.917Z,20.09
2023-05-05T16:23:17.723Z,22.00
2023-05-05T16:28:20.287Z,23.72
2023-05-05T16:33:22.952Z,24.75
2023-05-05T16:38:25.556Z,25.78
2023-05-05T16:43:28.122Z,26.90
2023-05-05T16:48:30.766Z,27.68
2023-05-05T16:53:33.551Z,28.57
2023-05-05T16:58:36.146Z,28.89
2023-05-05T17:03:39.374Z,29.38
2023-05-05T17:08:41.967Z,29.95
2023-05-05T17:13:44.468Z,30.78
2023-05-05T17:18:47.025Z,31.19
2023-05-05T17:23:50.159Z,32.08
2023-05-05T17:28:52.691Z,32.80
2023-05-05T17:33:55.531Z,33.29
2023-05-05T17:38:58.071Z,33.75
2023-05-05T17:44:00.731Z,33.80
2023-05-05T17:49:03.373Z,34.31
2023-05-05T17:54:06.026Z,34.56
2023-05-05T17:59:08.820Z,35.00
2023-05-05T18:04:11.386Z,35.24
2023-05-05T18:09:14.153Z,35.68
2023-05-05T18:14:17.692Z,36.22
2023-05-05T18:19:23.673Z,36.70
2023-05-05T18:24:27.455Z,36.91
2023-05-05T18:29:30.010Z,36.97
2023-05-05T18:34:32.804Z,37.40
2023-05-05T18:39:35.365Z,37.92
2023-05-05T18:44:38.041Z,38.31
2023-05-05T18:49:40.807Z,38.70
2023-05-05T18:54:43.404Z,38.99
2023-05-05T18:59:46.015Z,39.36
2023-05-05T19:04:48.716Z,39.86
2023-05-05T19:09:51.409Z,40.89
2023-05-05T19:14:53.973Z,41.93
2023-05-05T19:19:56.501Z,42.37
2023-05-05T19:24:59.070Z,43.18
2023-05-05T19:30:01.765Z,43.76
2023-05-05T19:35:06.687Z,44.35
2023-05-05T19:40:09.926Z,44.65
2023-05-05T19:45:12.660Z,45.31
2023-05-05T19:50:16.006Z,45.61
2023-05-05T19:55:18.716Z,46.15
2023-05-05T20:00:24.246Z,46.06
2023-05-05T20:05:27.206Z,46.40
2023-05-05T20:10:29.883Z,47.06
2023-05-05T20:15:33.335Z,47.55
2023-05-05T20:20:35.933Z,47.96
2023-05-05T20:25:38.594Z,48.00
2023-05-05T20:30:41.188Z,48.45
2023-05-05T20:35:43.772Z,48.73
2023-05-05T20:40:46.350Z,49.31
2023-05-05T20:45:48.840Z,49.45
2023-05-05T20:50:52.130Z,49.80
2023-05-05T20:55:54.683Z,50.04
2023-05-05T21:00:57.280Z,50.98
2023-05-05T21:05:59.916Z,51.68
2023-05-05T21:11:02.999Z,51.54
2023-05-05T21:16:05.728Z,52.19
2023-05-05T21:21:08.253Z,52.19
2023-05-05T21:26:10.820Z,52.39
2023-05-05T21:31:21.646Z,52.63
2023-05-05T21:36:25.035Z,53.24
2023-05-05T21:41:27.914Z,53.37
2023-05-05T21:46:30.500Z,53.89
2023-05-05T21:51:34.467Z,53.96
2023-05-05T21:56:37.406Z,54.49
2023-05-05T22:01:40.134Z,55.25
2023-05-05T22:06:42.784Z,55.68
2023-05-05T22:11:45.385Z,55.86
2023-05-05T22:16:48.007Z,56.26
2023-05-05T22:21:50.647Z,56.87
2023-05-05T22:26:54.174Z,56.62
2023-05-05T22:31:56.801Z,56.75
2023-05-05T22:36:59.628Z,57.76
2023-05-05T22:42:03.680Z,57.59
2023-05-05T22:47:06.925Z,57.43
2023-05-05T22:52:09.498Z,57.66
2023-05-05T22:57:12.058Z,58.14
2023-05-05T23:02:14.617Z,59.07
2023-05-05T23:07:17.204Z,58.97
2023-05-05T23:12:19.906Z,58.54
2023-05-05T23:17:22.731Z,58.73
2023-05-05T23:22:25.263Z,58.88
2023-05-05T23:27:27.797Z,58.52
2023-05-05T23:32:30.416Z,58.72
2023-05-05T23:37:32.970Z,60.08
2023-05-05T23:42:35.569Z,59.09
2023-05-05T23:47:38.143Z,59.37
2023-05-05T23:52:41.772Z,59.21
2023-05-05T23:57:44.333Z,59.61
